createdAt,value
2022-09-20T00:01:28.734Z,41.59
2022-09-20T00:03:58.777Z,40.39
2022-09-20T00:06:28.940Z,39.66
2022-09-20T00:08:56.837Z,41.05
2022-09-20T00:11:27.155Z,40.63
2022-09-20T00:13:56.681Z,42.07
2022-09-20T00:16:27.748Z,42.10
2022-09-20T00:18:57.277Z,44.28
2022-09-20T00:21:28.489Z,45.33
2022-09-20T00:23:57.736Z,46.06
2022-09-20T00:26:26.819Z,46.13
2022-09-20T00:28:54.930Z,47.13
2022-09-20T00:31:23.182Z,47.53
2022-09-20T00:34:13.075Z,47.65
2022-09-20T00:36:40.563Z,48.77
2022-09-20T00:39:09.497Z,49.74
2022-09-20T00:41:36.765Z,49.61
2022-09-20T00:44:43.050Z,49.14
2022-09-20T00:47:36.532Z,50.64
2022-09-20T00:50:33.409Z,49.68
2022-09-20T00:53:18.733Z,46.80
2022-09-20T00:55:58.078Z,46.51
2022-09-20T00:58:28.920Z,46.05
2022-09-20T01:00:58.199Z,45.42
2022-09-20T01:03:31.354Z,45.04
2022-09-20T01:06:03.309Z,44.97
2022-09-20T01:08:32.517Z,45.14
2022-09-20T01:11:00.322Z,46.09
2022-09-20T01:13:27.769Z,46.04
2022-09-20T01:15:59.007Z,45.62
2022-09-20T01:18:28.438Z,46.68
2022-09-20T01:20:56.658Z,46.91
2022-09-20T01:23:52.213Z,49.29
2022-09-20T01:26:52.997Z,48.77
2022-09-20T01:29:57.963Z,49.53
2022-09-20T01:32:36.806Z,49.48
2022-09-20T01:35:04.837Z,48.42
2022-09-20T01:38:00.919Z,48.30
2022-09-20T01:40:44.945Z,49.99
2022-09-20T01:43:24.362Z,47.39
2022-09-20T01:45:53.030Z,50.56
2022-09-20T01:48:40.195Z,50.82
2022-09-20T01:51:35.626Z,51.17
2022-09-20T01:54:18.196Z,51.30
2022-09-20T01:56:51.522Z,51.79
2022-09-20T01:59:43.532Z,51.93
2022-09-20T02:02:16.892Z,51.84
2022-09-20T02:04:56.962Z,52.72
2022-09-20T02:07:55.485Z,52.89
2022-09-20T02:11:01.805Z,53.93
2022-09-20T02:13:40.418Z,54.51
2022-09-20T02:16:46.155Z,54.30
2022-09-20T02:19:32.258Z,55.54
2022-09-20T02:22:18.187Z,56.24
2022-09-20T02:25:04.382Z,57.10
2022-09-20T02:28:02.586Z,58.13
2022-09-20T02:30:39.070Z,59.06
2022-09-20T02:33:35.734Z,60.18
2022-09-20T02:36:14.988Z,59.80
2022-09-20T02:39:22.317Z,60.57
2022-09-20T02:41:55.688Z,61.45
2022-09-20T02:44:39.438Z,61.38
2022-09-20T02:47:36.074Z,62.20
2022-09-20T02:50:41.156Z,61.86
2022-09-20T02:53:20.569Z,62.31
2022-09-20T02:56:19.436Z,62.50
2022-09-20T02:59:08.817Z,63.21
2022-09-20T03:02:13.709Z,62.43
2022-09-20T03:05:02.830Z,62.09
2022-09-20T03:08:11.913Z,62.20
2022-09-20T03:10:55.237Z,62.69
2022-09-20T03:13:50.696Z,63.18
2022-09-20T03:16:52.547Z,62.44
2022-09-20T03:19:33.403Z,58.46
2022-09-20T03:22:22.734Z,56.76
2022-09-20T03:25:05.269Z,52.91
2022-09-20T03:27:58.928Z,52.05
2022-09-20T03:30:41.593Z,52.54
2022-09-20T03:33:30.881Z,54.17
2022-09-20T03:36:20.243Z,52.24
2022-09-20T03:38:50.623Z,50.56
2022-09-20T03:41:30.669Z,53.45
2022-09-20T03:44:15.827Z,54.22
2022-09-20T03:46:48.258Z,51.51
2022-09-20T03:49:33.946Z,49.24
2022-09-20T03:52:19.534Z,50.23
2022-09-20T03:54:46.910Z,48.38
2022-09-20T03:57:26.179Z,50.13
2022-09-20T03:59:58.926Z,50.40
2022-09-20T04:03:01.817Z,49.42
2022-09-20T04:05:35.270Z,48.31
2022-09-20T04:08:31.728Z,51.02
2022-09-20T04:11:25.630Z,48.85
2022-09-20T04:14:30.152Z,50.52
2022-09-20T04:17:05.934Z,50.01
2022-09-20T04:19:49.490Z,48.54
2022-09-20T04:22:19.688Z,50.46
2022-09-20T04:24:59.164Z,51.67
2022-09-20T04:27:43.759Z,51.87
2022-09-20T04:30:30.213Z,52.07
2022-09-20T04:33:03.650Z,50.68
2022-09-20T04:36:17.967Z,52.28
2022-09-20T04:38:55.545Z,51.23
2022-09-20T04:41:51.339Z,53.66
2022-09-20T04:44:28.015Z,53.06
2022-09-20T04:47:12.246Z,53.85
2022-09-20T04:50:11.580Z,53.90
2022-09-20T04:52:45.158Z,55.34
2022-09-20T04:55:35.480Z,55.90
2022-09-20T04:58:21.038Z,56.30
2022-09-20T05:01:03.768Z,55.93
2022-09-20T05:03:40.486Z,56.74
2022-09-20T05:06:30.100Z,55.40
2022-09-20T05:09:36.417Z,57.43
2022-09-20T05:12:35.571Z,56.76
2022-09-20T05:15:08.703Z,58.63
2022-09-20T05:17:56.301Z,58.42
2022-09-20T05:20:24.322Z,58.12
2022-09-20T05:23:08.936Z,58.67
2022-09-20T05:25:51.552Z,58.97
2022-09-20T05:28:54.876Z,59.02
2022-09-20T05:31:40.372Z,59.33
2022-09-20T05:34:47.010Z,58.00
2022-09-20T05:37:23.075Z,58.56
2022-09-20T05:40:04.486Z,57.33
2022-09-20T05:42:41.014Z,53.45
2022-09-20T05:45:27.069Z,55.51
2022-09-20T05:48:03.914Z,57.17
2022-09-20T05:51:12.608Z,57.15
2022-09-20T05:53:58.199Z,57.27
2022-09-20T05:56:39.532Z,54.20
2022-09-20T05:59:12.918Z,57.44
2022-09-20T06:01:47.154Z,51.32
2022-09-20T06:04:26.582Z,55.73
2022-09-20T06:07:31.714Z,58.58
2022-09-20T06:10:08.181Z,57.31
2022-09-20T06:12:35.862Z,58.15
2022-09-20T06:15:36.302Z,58.29
2022-09-20T06:18:36.446Z,59.50
2022-09-20T06:21:32.066Z,59.95
2022-09-20T06:24:02.390Z,59.95
2022-09-20T06:26:36.729Z,60.05
2022-09-20T06:29:11.615Z,59.81
2022-09-20T06:31:39.014Z,60.56
2022-09-20T06:34:10.486Z,59.44
2022-09-20T06:37:01.456Z,59.07
2022-09-20T06:39:57.717Z,58.80
2022-09-20T06:42:27.313Z,55.20
2022-09-20T06:44:55.516Z,55.60
2022-09-20T06:47:23.371Z,55.83
2022-09-20T06:49:50.845Z,50.02
2022-09-20T06:52:20.769Z,52.50
2022-09-20T06:54:51.861Z,51.36
2022-09-20T06:57:23.997Z,52.01
2022-09-20T06:59:51.403Z,45.29
2022-09-20T07:02:18.824Z,47.23
2022-09-20T07:04:46.305Z,50.20
2022-09-20T07:07:19.030Z,49.87
2022-09-20T07:09:47.023Z,44.64
2022-09-20T07:12:14.394Z,46.58
2022-09-20T07:14:43.156Z,47.63
2022-09-20T07:17:10.585Z,45.50
2022-09-20T07:19:38.000Z,45.54
2022-09-20T07:22:05.457Z,45.46
2022-09-20T07:24:32.894Z,46.76
2022-09-20T07:27:03.073Z,44.67
2022-09-20T07:29:31.574Z,44.69
2022-09-20T07:31:58.998Z,43.41
2022-09-20T07:34:27.256Z,43.23
2022-09-20T07:36:54.885Z,42.22
2022-09-20T07:39:22.302Z,41.98
2022-09-20T07:41:51.211Z,40.04
2022-09-20T07:44:24.359Z,38.39
2022-09-20T07:46:53.898Z,39.55
2022-09-20T07:49:22.592Z,40.39
2022-09-20T07:51:50.837Z,40.53
2022-09-20T07:54:19.005Z,40.94
2022-09-20T07:56:46.887Z,41.64
2022-09-20T07:59:14.920Z,42.50
2022-09-20T08:01:43.102Z,42.95
2022-09-20T08:04:10.595Z,42.75
2022-09-20T08:06:45.673Z,42.26
2022-09-20T08:09:13.959Z,42.78
2022-09-20T08:11:43.537Z,43.24
2022-09-20T08:14:15.759Z,42.52
2022-09-20T08:16:48.704Z,42.14
2022-09-20T08:19:18.922Z,41.49
2022-09-20T08:21:46.481Z,41.16
2022-09-20T08:24:15.001Z,40.92
2022-09-20T08:26:43.703Z,40.83
2022-09-20T08:29:11.652Z,40.76
2022-09-20T08:31:42.289Z,40.77
2022-09-20T08:34:12.290Z,40.37
2022-09-20T08:36:42.110Z,40.45
2022-09-20T08:42:09.010Z,40.69
2022-09-20T08:44:47.805Z,39.46
2022-09-20T08:47:23.250Z,39.87
2022-09-20T08:49:57.423Z,39.73
2022-09-20T08:52:37.608Z,39.09
2022-09-20T08:55:18.075Z,39.01
2022-09-20T08:57:56.984Z,38.66
2022-09-20T09:00:29.579Z,39.39
2022-09-20T09:03:00.870Z,39.78
2022-09-20T09:05:55.601Z,38.66
2022-09-20T09:08:31.059Z,37.68
2022-09-20T09:11:04.756Z,38.21
2022-09-20T09:13:37.909Z,38.59
2022-09-20T09:16:22.657Z,38.24
2022-09-20T09:18:53.175Z,38.31
2022-09-20T09:21:23.370Z,38.81
2022-09-20T09:24:05.492Z,39.62
2022-09-20T09:26:38.840Z,38.51
2022-09-20T09:29:23.473Z,38.59
2022-09-20T09:31:54.681Z,39.08
2022-09-20T09:34:38.822Z,38.53
2022-09-20T09:37:06.258Z,37.39
2022-09-20T09:39:38.390Z,36.22
2022-09-20T09:42:26.250Z,36.93
2022-09-20T09:44:53.697Z,37.36
2022-09-20T09:47:29.039Z,36.49
2022-09-20T09:50:03.666Z,36.89
2022-09-20T09:52:34.035Z,36.83
2022-09-20T09:55:05.675Z,37.36
2022-09-20T09:57:39.596Z,37.46
2022-09-20T10:00:19.417Z,36.90
2022-09-20T10:03:26.781Z,37.12
2022-09-20T10:06:04.648Z,37.50
2022-09-20T10:08:54.245Z,37.60
2022-09-20T10:11:58.646Z,37.09
2022-09-20T10:14:33.764Z,39.09
2022-09-20T10:17:24.917Z,37.57
2022-09-20T10:20:08.044Z,38.55
2022-09-20T10:23:06.754Z,36.75
2022-09-20T10:25:44.235Z,36.38
2022-09-20T10:28:21.110Z,36.49
2022-09-20T10:31:19.342Z,37.34
2022-09-20T10:34:07.050Z,35.92
2022-09-20T10:36:55.882Z,36.09
2022-09-20T10:39:38.797Z,35.51
2022-09-20T10:42:49.650Z,35.86
2022-09-20T10:46:08.383Z,37.55
2022-09-20T10:48:38.356Z,34.40
2022-09-20T10:51:30.760Z,35.67
2022-09-20T10:54:15.342Z,36.35
2022-09-20T10:56:53.021Z,36.57
2022-09-20T10:59:23.524Z,36.60
2022-09-20T11:02:36.223Z,35.28
2022-09-20T11:05:09.701Z,36.94
2022-09-20T11:07:55.314Z,38.65
2022-09-20T11:10:30.715Z,38.99
2022-09-20T11:13:05.654Z,37.33
2022-09-20T11:15:41.767Z,36.73
2022-09-20T11:18:23.184Z,37.21
2022-09-20T11:21:15.150Z,37.38
2022-09-20T11:24:02.720Z,37.83
2022-09-20T11:26:43.351Z,37.31
2022-09-20T11:29:32.354Z,36.96
2022-09-20T11:32:13.896Z,37.35
2022-09-20T11:35:21.498Z,38.06
2022-09-20T11:38:14.256Z,38.43
2022-09-20T11:41:05.218Z,38.12
2022-09-20T11:43:35.533Z,38.76
2022-09-20T11:46:07.942Z,38.04
2022-09-20T11:49:11.013Z,37.15
2022-09-20T11:52:19.913Z,37.41
2022-09-20T11:55:15.250Z,38.25
2022-09-20T11:57:42.670Z,38.41
2022-09-20T12:00:10.549Z,39.41
2022-09-20T12:02:48.602Z,38.22
2022-09-20T12:05:25.125Z,38.77
2022-09-20T12:07:56.023Z,40.12
2022-09-20T12:10:35.211Z,38.44
2022-09-20T12:13:25.161Z,38.79
2022-09-20T12:16:07.497Z,38.99
2022-09-20T12:18:35.798Z,38.66
2022-09-20T12:21:15.015Z,39.15
2022-09-20T12:23:47.046Z,40.20
2022-09-20T12:26:21.004Z,39.44
2022-09-20T12:28:58.972Z,39.64
2022-09-20T12:31:29.225Z,39.42
2022-09-20T12:33:59.859Z,39.42
2022-09-20T12:36:30.110Z,39.54
2022-09-20T12:39:21.258Z,40.52
2022-09-20T12:41:57.785Z,40.94
2022-09-20T12:44:42.451Z,41.45
2022-09-20T12:47:09.788Z,41.98
2022-09-20T12:49:57.951Z,41.68
2022-09-20T12:52:48.382Z,41.18
2022-09-20T12:55:40.599Z,40.88
2022-09-20T12:58:14.250Z,40.90
2022-09-20T13:00:42.775Z,42.66
2022-09-20T13:03:24.039Z,41.78
2022-09-20T13:06:14.921Z,41.25
2022-09-20T13:09:09.058Z,41.36
2022-09-20T13:11:47.540Z,41.30
2022-09-20T13:14:28.138Z,41.01
2022-09-20T13:17:14.025Z,40.19
2022-09-20T13:19:44.934Z,40.87
2022-09-20T13:22:20.629Z,41.20
2022-09-20T13:24:50.576Z,42.15
2022-09-20T13:27:32.516Z,42.19
2022-09-20T13:30:32.755Z,43.45
2022-09-20T13:33:17.510Z,42.41
2022-09-20T13:35:48.366Z,42.41
2022-09-20T13:38:24.439Z,43.00
2022-09-20T13:40:52.898Z,42.34
2022-09-20T13:43:35.932Z,41.99
2022-09-20T13:46:12.370Z,41.74
2022-09-20T13:48:40.832Z,41.25
2022-09-20T13:51:27.018Z,39.80
2022-09-20T13:54:30.914Z,41.78
2022-09-20T13:57:05.438Z,41.93
2022-09-20T13:59:45.406Z,41.90
2022-09-20T14:02:40.263Z,41.03
2022-09-20T14:05:19.237Z,41.14
2022-09-20T14:07:48.280Z,39.21
2022-09-20T14:10:32.361Z,40.90
2022-09-20T14:13:02.319Z,41.59
2022-09-20T14:15:38.337Z,40.70
2022-09-20T14:18:07.209Z,40.61
2022-09-20T14:20:34.990Z,41.09
2022-09-20T14:23:02.627Z,41.32
2022-09-20T14:25:30.034Z,41.52
2022-09-20T14:28:17.618Z,41.16
2022-09-20T14:30:47.261Z,41.00
2022-09-20T14:33:20.797Z,40.72
2022-09-20T14:35:51.024Z,41.39
2022-09-20T14:38:27.755Z,40.88
2022-09-20T14:40:56.803Z,41.30
2022-09-20T14:43:34.810Z,40.64
2022-09-20T14:46:06.737Z,40.95
2022-09-20T14:48:41.356Z,40.46
2022-09-20T14:51:18.828Z,40.07
2022-09-20T14:54:08.782Z,39.56
2022-09-20T14:56:39.616Z,38.04
2022-09-20T14:59:19.082Z,40.03
2022-09-20T15:02:03.835Z,40.34
2022-09-20T15:04:33.214Z,40.49
2022-09-20T15:07:13.220Z,41.18
2022-09-20T15:09:40.723Z,41.83
2022-09-20T15:12:16.201Z,40.70
2022-09-20T15:14:44.335Z,40.63
2022-09-20T15:17:18.071Z,39.89
2022-09-20T15:19:46.543Z,39.85
2022-09-20T15:22:14.346Z,40.12
2022-09-20T15:24:42.301Z,41.24
2022-09-20T15:27:12.135Z,39.74
2022-09-20T15:29:39.877Z,40.12
2022-09-20T15:32:10.646Z,40.99
2022-09-20T15:34:38.490Z,40.45
2022-09-20T15:37:06.044Z,40.36
2022-09-20T15:39:33.517Z,40.35
2022-09-20T15:42:01.448Z,40.73
2022-09-20T15:44:29.411Z,40.84
2022-09-20T15:46:56.832Z,40.10
2022-09-20T15:49:24.318Z,40.33
2022-09-20T15:51:52.702Z,39.70
2022-09-20T15:54:20.200Z,40.11
2022-09-20T15:56:47.633Z,40.65
2022-09-20T15:59:16.389Z,41.06
2022-09-20T16:01:45.677Z,40.50
2022-09-20T16:04:19.468Z,40.95
2022-09-20T16:06:49.559Z,40.86
2022-09-20T16:09:18.311Z,41.93
2022-09-20T16:11:47.212Z,41.28
2022-09-20T16:14:15.192Z,41.62
2022-09-20T16:16:42.911Z,41.73
2022-09-20T16:19:25.008Z,41.45
2022-09-20T16:21:58.672Z,42.18
2022-09-20T16:24:35.454Z,42.32
2022-09-20T16:27:06.168Z,41.67
2022-09-20T16:29:34.303Z,43.21
2022-09-20T16:32:03.740Z,42.13
2022-09-20T16:34:34.129Z,42.11
2022-09-20T16:37:14.827Z,44.25
2022-09-20T16:39:42.654Z,45.18
2022-09-20T16:42:12.362Z,45.05
2022-09-20T16:44:43.745Z,46.38
2022-09-20T16:47:24.881Z,48.05
2022-09-20T16:49:53.230Z,48.14
2022-09-20T16:52:21.070Z,44.14
2022-09-20T16:54:48.840Z,45.37
2022-09-20T16:57:16.638Z,47.19
2022-09-20T16:59:46.565Z,48.29
2022-09-20T17:02:14.162Z,49.18
2022-09-20T17:04:43.693Z,44.92
2022-09-20T17:07:11.245Z,48.99
2022-09-20T17:09:38.626Z,49.71
2022-09-20T17:12:09.413Z,50.40
2022-09-20T17:14:37.267Z,50.90
2022-09-20T17:17:04.758Z,51.13
2022-09-20T17:19:33.873Z,51.48
2022-09-20T17:22:01.609Z,51.89
2022-09-20T17:24:30.320Z,52.26
2022-09-20T17:26:59.052Z,51.18
2022-09-20T17:29:27.639Z,51.57
2022-09-20T17:31:59.595Z,49.96
2022-09-20T17:34:29.482Z,50.85
2022-09-20T17:36:57.079Z,52.70
2022-09-20T17:39:24.872Z,53.02
2022-09-20T17:41:56.259Z,54.14
2022-09-20T17:44:24.146Z,54.62
2022-09-20T17:46:54.181Z,55.51
2022-09-20T17:49:23.457Z,56.26
2022-09-20T17:51:55.749Z,56.76
2022-09-20T17:54:24.564Z,57.34
2022-09-20T17:56:58.462Z,57.51
2022-09-20T17:59:26.342Z,58.70
2022-09-20T18:01:55.308Z,59.41
2022-09-20T18:04:25.231Z,58.98
2022-09-20T18:06:53.966Z,59.63
2022-09-20T18:09:25.493Z,59.17
2022-09-20T18:11:54.965Z,60.34
2022-09-20T18:14:27.954Z,59.73
2022-09-20T18:16:58.113Z,60.41
2022-09-20T18:19:32.530Z,61.39
2022-09-20T18:22:01.571Z,60.95
2022-09-20T18:24:29.694Z,61.30
2022-09-20T18:26:57.052Z,61.07
2022-09-20T18:29:24.990Z,59.69
2022-09-20T18:31:57.979Z,60.59
2022-09-20T18:34:33.420Z,61.00
2022-09-20T18:37:01.631Z,60.63
2022-09-20T18:39:35.027Z,60.71
2022-09-20T18:42:03.299Z,60.66
2022-09-20T18:44:33.567Z,60.37
2022-09-20T18:47:03.774Z,60.00
2022-09-20T18:49:32.434Z,61.06
2022-09-20T18:52:00.533Z,60.86
2022-09-20T18:54:33.402Z,60.62
2022-09-20T18:57:02.302Z,60.98
2022-09-20T18:59:29.903Z,60.83
2022-09-20T19:02:23.588Z,60.57
2022-09-20T19:05:09.832Z,59.38
2022-09-20T19:07:56.098Z,59.72
2022-09-20T19:10:27.102Z,61.04
2022-09-20T19:12:57.392Z,60.12
2022-09-20T19:15:43.390Z,61.27
2022-09-20T19:18:39.065Z,61.84
2022-09-20T19:21:06.620Z,60.03
2022-09-20T19:24:08.136Z,59.57
2022-09-20T19:26:38.547Z,61.28
2022-09-20T19:29:37.046Z,60.69
2022-09-20T19:32:04.977Z,60.08
2022-09-20T19:34:33.416Z,60.56
2022-09-20T19:37:12.381Z,61.49
2022-09-20T19:39:45.928Z,61.99
2022-09-20T19:42:53.042Z,62.02
2022-09-20T19:45:29.034Z,61.02
2022-09-20T19:48:21.884Z,61.70
2022-09-20T19:50:52.902Z,63.04
2022-09-20T19:53:27.622Z,63.22
2022-09-20T19:56:00.823Z,63.94
2022-09-20T19:58:28.769Z,62.40
2022-09-20T20:00:58.038Z,63.42
2022-09-20T20:03:27.505Z,61.42
2022-09-20T20:06:24.203Z,61.80
2022-09-20T20:09:08.682Z,63.06
2022-09-20T20:12:06.327Z,61.34
2022-09-20T20:15:07.595Z,61.64
2022-09-20T20:17:47.119Z,64.82
2022-09-20T20:20:35.858Z,63.58
2022-09-20T20:23:15.318Z,64.17
2022-09-20T20:25:48.979Z,62.53
2022-09-20T20:28:16.462Z,62.94
2022-09-20T20:30:43.974Z,63.84
2022-09-20T20:33:18.953Z,62.56
2022-09-20T20:35:57.769Z,63.50
2022-09-20T20:38:26.654Z,63.38
2022-09-20T20:41:03.927Z,64.08
2022-09-20T20:43:42.507Z,64.26
2022-09-20T20:46:14.300Z,64.29
2022-09-20T20:48:42.311Z,65.18
2022-09-20T20:51:11.859Z,65.43
2022-09-20T20:53:41.948Z,65.57
2022-09-20T20:56:12.229Z,65.50
2022-09-20T20:58:41.810Z,65.10
2022-09-20T21:01:15.092Z,64.57
2022-09-20T21:03:46.805Z,64.83
2022-09-20T21:06:15.577Z,64.23
2022-09-20T21:08:49.124Z,65.32
2022-09-20T21:11:20.428Z,64.56
2022-09-20T21:13:50.795Z,65.78
2022-09-20T21:16:20.707Z,65.54
2022-09-20T21:18:49.503Z,66.25
2022-09-20T21:21:21.026Z,66.94
2022-09-20T21:23:51.249Z,68.26
2022-09-20T21:26:19.794Z,67.75
2022-09-20T21:29:11.165Z,68.18
2022-09-20T21:31:43.966Z,67.72
2022-09-20T21:34:13.670Z,68.65
2022-09-20T21:36:41.672Z,68.64
2022-09-20T21:39:09.115Z,68.71
2022-09-20T21:41:38.089Z,68.75
2022-09-20T21:44:07.322Z,69.33
2022-09-20T21:46:37.093Z,68.93
2022-09-20T21:49:06.274Z,69.31
2022-09-20T21:51:34.883Z,69.24
2022-09-20T21:54:02.998Z,69.48
2022-09-20T21:56:32.867Z,69.83
2022-09-20T21:59:02.944Z,68.10
2022-09-20T22:01:35.282Z,68.09
2022-09-20T22:04:08.338Z,68.32
2022-09-20T22:06:38.658Z,67.93
2022-09-20T22:09:11.298Z,68.19
2022-09-20T22:11:45.462Z,67.88
2022-09-20T22:14:14.576Z,68.49
2022-09-20T22:16:44.664Z,67.19
2022-09-20T22:19:14.789Z,66.21
2022-09-20T22:21:44.530Z,67.21
2022-09-20T22:24:13.597Z,67.68
2022-09-20T22:26:48.494Z,68.44
2022-09-20T22:29:16.683Z,68.87
2022-09-20T22:31:45.681Z,68.48
2022-09-20T22:34:18.711Z,68.62
2022-09-20T22:36:46.799Z,67.10
2022-09-20T22:39:14.799Z,67.56
2022-09-20T22:41:42.809Z,66.24
2022-09-20T22:44:10.875Z,66.72
2022-09-20T22:46:38.643Z,66.54
2022-09-20T22:49:07.094Z,66.49
2022-09-20T22:51:35.044Z,66.21
2022-09-20T22:54:11.202Z,66.54
2022-09-20T22:56:39.648Z,65.45
2022-09-20T22:59:09.793Z,64.75
2022-09-20T23:01:41.121Z,65.28
2022-09-20T23:04:14.388Z,65.54
2022-09-20T23:06:47.892Z,66.15
2022-09-20T23:09:17.989Z,66.28
2022-09-20T23:11:46.130Z,67.12
2022-09-20T23:14:19.491Z,67.34
2022-09-20T23:16:47.945Z,67.26
2022-09-20T23:19:15.804Z,66.59
2022-09-20T23:21:43.688Z,67.06
2022-09-20T23:24:13.219Z,68.02
2022-09-20T23:26:41.770Z,68.99
2022-09-20T23:29:12.405Z,69.34
2022-09-20T23:31:45.287Z,69.46
2022-09-20T23:34:14.402Z,68.90
2022-09-20T23:36:42.475Z,70.54
2022-09-20T23:39:11.362Z,69.87
2022-09-20T23:41:38.995Z,68.67
2022-09-20T23:44:07.440Z,70.31
2022-09-20T23:46:34.787Z,69.27
2022-09-20T23:49:03.320Z,68.95
2022-09-20T23:51:30.876Z,69.91
2022-09-20T23:53:58.464Z,71.90
2022-09-20T23:56:26.851Z,71.53
2022-09-20T23:58:54.357Z,71.67
